Nearby METAR Reports

 

RPLL - Ninoy Aquino Int, Philippines
Distance from station: S 15km
Updated: 04/20/2024 8:00am
Few Clouds
Few Clouds
 Wind from E
Wind: E 15 km/h
Temperature: 31°C
Heat Index: 36°C
Dew Point: 23°C
Humidity: 62%
Barometer: 1011 hPa
Clouds: Few Clouds
Visibility: 10 km
Cloud details: Few Clouds 762 m
2024/04/20 00:00 RPLL 200000Z 09008KT 060V140 9999 FEW025 31/23 Q1011 NOSIG RMK A2985
RPLC - Angeles/Pampanga, Philippines
Distance from station: NW 71km
Updated: 04/20/2024 8:00am
Few Clouds
Few Clouds
 Wind from E
Wind: E 4 km/h
Temperature: 29°C
Heat Index: 32°C
Dew Point: 23°C
Humidity: 70%
Barometer: 1012 hPa
Clouds: Few Clouds
Visibility: 10 km
Cloud details: Few Clouds 610 m
2024/04/20 00:00 RPLC 200000Z 09002KT 9999 FEW020 29/23 Q1012 NOSIG RMK A2988
 
RPLB - Olongapo/Subic, Philippines
Distance from station: WNW 78km
Updated: 04/20/2024 8:00am
Few Clouds
Few Clouds
 Wind from ENE
Wind: ENE 19 km/h
Temperature: 30°C
Heat Index: 33°C
Dew Point: 22°C
Humidity: 62%
Barometer: 1011 hPa
Clouds: Few Clouds
Visibility: 10 km
Cloud details: Few Clouds 610 m
2024/04/20 00:00 RPLB 200000Z 07010KT 9999 FEW020 30/22 Q1011 NOSIG RMK A2985
RPMR - Romblon/Tablas I, Philippines
Distance from station: SSE 270km
Updated: 04/20/2024 8:00am
Few Clouds
Few Clouds
 Wind from N
Wind: N 19 km/h
Temperature: 30°C
Heat Index: 33°C
Dew Point: 22°C
Humidity: 62%
Barometer: 1010 hPa
Clouds: Few Clouds
Visibility: 10 km
Cloud details: Few Clouds 549 m
2024/04/20 00:00 RPMR 200000Z 35010KT 9999 FEW018 30/22 Q1010 RMK A2983
 
RPVK - Kalibo/Panay Isl, Philippines
Distance from station: SSE 364km
Updated: 03/27/2024 9:00am
NOT Current
Mostly cloudy
Mostly cloudy
 Wind from ENE
Wind: ENE 19 km/h
Temperature: 30°C
Heat Index: 39°C
Dew Point: 27°C
Humidity: 84%
Barometer: 1015 hPa
Clouds: Mostly cloudy
Visibility: 10 km
Cloud details: Partly cloudy 488 m
Mostly cloudy 2134 m
Mostly cloudy 7315 m
2024/03/27 01:00 RPVK 270100Z 06010KT 9999 SCT016 BKN070 BKN240 30/27 Q1015 RMK A2997
RPLI - Laoag Intl(Ph-Ar, Philippines
Distance from station: N 394km
Updated: 04/20/2024 8:00am
Few Clouds
Few Clouds
 Wind from SSE
Wind: SSE 7 km/h
Temperature: 30°C
Heat Index: 36°C
Dew Point: 25°C
Humidity: 75%
Barometer: 1010 hPa
Clouds: Few Clouds
Visibility: 10 km
Cloud details: Few Clouds 549 m
2024/04/20 00:00 RPLI 200000Z 15004KT 090V230 9999 FEW018 30/25 Q1010 NOSIG RMK A2983
 
RPVM - Mactan-Cebu, Philippines
Distance from station: SE 582km
Updated: 04/20/2024 8:00am
Few Clouds
Few Clouds
 Wind from ENE
Wind: ENE 11 km/h
Temperature: 30°C
Heat Index: 34°C
Dew Point: 23°C
Humidity: 66%
Barometer: 1012 hPa
Clouds: Few Clouds
Visibility: 10 km
Cloud details: Few Clouds 610 m
2024/04/20 00:00 RPVM 200000Z 06006KT 030V090 9999 FEW020 30/23 Q1012 NOSIG RMK A2988
RPVP - Puerto Princesa, Philippines
Distance from station: SSW 598km
Updated: 04/20/2024 8:00am
Few Clouds
Few Clouds
 Wind from E
Wind: E 22 km/h
Temperature: 31°C
Heat Index: 37°C
Dew Point: 24°C
Humidity: 66%
Barometer: 1010 hPa
Clouds: Few Clouds
Visibility: 10 km
Cloud details: Few Clouds 579 m
2024/04/20 00:00 RPVP 200000Z 09012KT 9999 FEW019 31/24 Q1010 RMK A2983
 
RPVD - Dumaguete/Negros, Philippines
Distance from station: SSE 643km
Updated: 04/20/2024 8:00am
Few Clouds
Few Clouds
 Wind from NE
Wind: NE 15 km/h
Temperature: 30°C
Heat Index: 35°C
Dew Point: 24°C
Humidity: 70%
Barometer: 1011 hPa
Clouds: Few Clouds
Visibility: 10 km
Cloud details: Few Clouds 732 m
2024/04/20 00:00 RPVD 200000Z 04008KT 9999 FEW024 30/24 Q1011 RMK A2985
RPMZ - Zamboanga (civ/A, Philippines
Distance from station: S 868km
Updated: 04/20/2024 8:00am
Few Clouds
Few Clouds
 Wind from varies
Wind: varies 4 km/h
Temperature: 31°C
Heat Index: 38°C
Dew Point: 25°C
Humidity: 70%
Barometer: 1010 hPa
Clouds: Few Clouds
Visibility: 10 km
Cloud details: Few Clouds 518 m
2024/04/20 00:00 RPMZ 200000Z VRB02KT 9999 FEW017 31/25 Q1010 RMK A2983
 
RPMD - Davao/Francisco, Philippines
Distance from station: SSE 980km
Updated: 04/20/2024 9:00am
Few Clouds
Few Clouds
 Wind from N
Wind: N 15 km/h
Temperature: 30°C
Heat Index: 34°C
Dew Point: 23°C
Humidity: 66%
Barometer: 1010 hPa
Clouds: Few Clouds
Visibility: 10 km
Cloud details: Few Clouds 488 m
2024/04/20 01:00 RPMD 200100Z 01008KT 320V040 9999 FEW016 30/23 Q1010 RMK A2983